Time;durP1;ratioP1;P1;durP2;ratioP2;P2;SDS_P1;SDS_P2;PMS_P1;PMS_P2;Temp;Humidity;BMP_temperature;BMP_pressure;BME280_temperature;BME280_humidity;BME280_pressure;Samples;Min_cycle;Max_cycle;Signal;HPM_P1;HPM_P2
2022/08/25 00:01:56;;;;;;;0.40;0.40;;;20.60;99.90;;;;;;5026766;28;20412;-82
2022/08/25 00:04:24;;;;;;;0.63;0.50;;;20.50;99.90;;;;;;5010054;28;20054;-83
2022/08/25 00:06:51;;;;;;;0.38;0.38;;;20.50;99.90;;;;;;5026444;28;20101;-83
2022/08/25 00:09:21;;;;;;;0.95;0.50;;;20.40;99.90;;;;;;4993393;28;20046;-86
2022/08/25 00:11:48;;;;;;;0.50;0.50;;;20.40;99.90;;;;;;5026824;28;20065;-91
2022/08/25 00:14:25;;;;;;;0.30;0.30;;;20.40;99.90;;;;;;4994017;28;20488;-93
2022/08/25 00:16:53;;;;;;;1.02;0.60;;;20.40;99.90;;;;;;5009810;28;20503;-82
2022/08/25 00:19:23;;;;;;;0.68;0.47;;;20.30;99.90;;;;;;4994995;28;20464;-84
2022/08/25 00:21:50;;;;;;;0.50;0.38;;;20.30;99.90;;;;;;5013852;28;20048;-82
2022/08/25 00:24:18;;;;;;;0.57;0.40;;;20.20;99.90;;;;;;4998200;28;20674;-92
2022/08/25 00:26:47;;;;;;;0.57;0.50;;;20.20;99.90;;;;;;5013585;28;20138;-91
2022/08/25 00:29:15;;;;;;;0.52;0.43;;;20.20;99.90;;;;;;5013570;28;20050;-83
2022/08/25 00:31:43;;;;;;;0.63;0.38;;;20.10;99.90;;;;;;5013239;28;20414;-92
2022/08/25 00:34:16;;;;;;;0.60;0.50;;;20.10;99.90;;;;;;5007019;28;20030;-92
2022/08/25 00:36:43;;;;;;;1.20;0.60;;;20.00;99.90;;;;;;5049361;28;20445;-83
2022/08/25 00:39:11;;;;;;;0.93;0.52;;;20.00;99.90;;;;;;5001046;28;20096;-83
2022/08/25 00:41:41;;;;;;;1.77;0.50;;;20.00;99.90;;;;;;5032986;28;20045;-89
2022/08/25 00:44:11;;;;;;;0.63;0.45;;;19.90;99.90;;;;;;5048709;28;20517;-82
2022/08/25 00:46:42;;;;;;;0.70;0.57;;;19.90;99.90;;;;;;5032939;28;20053;-83
2022/08/25 00:49:26;;;;;;;5.15;0.63;;;19.90;99.90;;;;;;5033010;28;20132;-92
2022/08/25 00:51:54;;;;;;;0.45;0.30;;;19.90;99.90;;;;;;5032640;28;20050;-92
2022/08/25 00:54:36;;;;;;;0.40;0.40;;;19.80;99.90;;;;;;5049740;28;20034;-93
2022/08/25 00:57:05;;;;;;;0.60;0.50;;;19.80;99.90;;;;;;5027215;28;20042;-82
2022/08/25 00:59:32;;;;;;;0.52;0.40;;;19.80;99.90;;;;;;5019235;28;20038;-91
2022/08/25 01:01:59;;;;;;;0.70;0.40;;;19.70;99.90;;;;;;5000774;28;20054;-83
2022/08/25 01:04:26;;;;;;;0.85;0.45;;;19.70;99.90;;;;;;5016094;28;20127;-83
2022/08/25 01:06:55;;;;;;;0.43;0.43;;;19.70;99.90;;;;;;5032404;28;20514;-92
2022/08/25 01:09:21;;;;;;;0.77;0.40;;;19.60;99.90;;;;;;5032782;28;20049;-83
2022/08/25 01:11:48;;;;;;;1.00;0.30;;;19.70;99.90;;;;;;5048453;28;20041;-93
2022/08/25 01:14:18;;;;;;;0.32;0.28;;;19.60;99.90;;;;;;5015777;28;20044;-83
2022/08/25 01:16:45;;;;;;;1.20;0.65;;;19.60;99.90;;;;;;5048483;28;20089;-83
2022/08/25 01:19:14;;;;;;;0.60;0.40;;;19.60;99.90;;;;;;5016367;28;20072;-93
2022/08/25 01:21:47;;;;;;;0.55;0.35;;;19.50;99.90;;;;;;5015661;28;20407;-83
2022/08/25 01:24:35;;;;;;;1.27;0.73;;;19.50;99.90;;;;;;5048815;28;20491;-91
2022/08/25 01:27:04;;;;;;;0.40;0.35;;;19.50;99.90;;;;;;5032860;28;20072;-93
2022/08/25 01:29:31;;;;;;;0.47;0.40;;;19.50;99.90;;;;;;5032335;28;20081;-93
2022/08/25 01:32:01;;;;;;;0.75;0.40;;;19.50;99.90;;;;;;5031026;28;20038;-92
2022/08/25 01:34:32;;;;;;;0.88;0.57;;;19.50;99.90;;;;;;5013010;28;20042;-93
2022/08/25 01:36:59;;;;;;;0.20;0.20;;;19.50;99.90;;;;;;5029362;28;20030;-93
2022/08/25 01:39:28;;;;;;;0.47;0.32;;;19.50;99.90;;;;;;4997297;28;20050;-92
2022/08/25 01:42:05;;;;;;;0.52;0.35;;;19.50;99.90;;;;;;5030868;28;20536;-93
2022/08/25 01:44:35;;;;;;;0.88;0.60;;;19.50;99.90;;;;;;5048255;28;20049;-92
2022/08/25 01:47:03;;;;;;;0.55;0.35;;;19.50;99.90;;;;;;5032527;28;20048;-83
2022/08/25 01:49:30;;;;;;;0.40;0.40;;;19.50;99.90;;;;;;5047928;28;20525;-93
2022/08/25 01:52:05;;;;;;;0.30;0.30;;;19.50;99.90;;;;;;5015561;28;20077;-83
2022/08/25 01:54:32;;;;;;;0.60;0.45;;;19.50;99.90;;;;;;5031538;28;20491;-83
2022/08/25 01:56:59;;;;;;;0.35;0.30;;;19.40;99.90;;;;;;5012113;28;20041;-83
2022/08/25 01:59:26;;;;;;;0.75;0.32;;;19.40;99.90;;;;;;4996127;28;20562;-93
2022/08/25 02:01:53;;;;;;;0.65;0.47;;;19.40;99.90;;;;;;4995465;28;20423;-83
2022/08/25 02:04:20;;;;;;;0.90;0.55;;;19.40;99.90;;;;;;5011545;28;20046;-92
2022/08/25 02:06:48;;;;;;;0.93;0.50;;;19.40;99.90;;;;;;4979499;28;20085;-83
2022/08/25 02:09:16;;;;;;;0.65;0.40;;;19.40;99.90;;;;;;5021090;28;20080;-83
2022/08/25 02:11:45;;;;;;;1.55;0.65;;;19.30;99.90;;;;;;5031042;28;20030;-83
2022/08/25 02:14:15;;;;;;;0.35;0.30;;;19.30;99.90;;;;;;5031486;28;20050;-83
2022/08/25 02:16:47;;;;;;;0.68;0.47;;;19.20;99.90;;;;;;5031081;28;20107;-93
2022/08/25 02:19:14;;;;;;;0.40;0.20;;;19.20;99.90;;;;;;5027867;28;20034;-93
2022/08/25 02:21:41;;;;;;;0.20;0.20;;;19.20;99.90;;;;;;4995740;28;20039;-93
2022/08/25 02:24:08;;;;;;;0.43;0.40;;;19.10;99.90;;;;;;5012542;28;20046;-83
2022/08/25 02:26:35;;;;;;;0.77;0.55;;;19.10;99.90;;;;;;5012006;28;20403;-83
2022/08/25 02:29:03;;;;;;;0.57;0.50;;;19.00;99.90;;;;;;5027595;28;20050;-93
2022/08/25 02:31:30;;;;;;;0.73;0.50;;;19.00;99.90;;;;;;5027658;28;20075;-92
2022/08/25 02:33:57;;;;;;;0.75;0.50;;;19.00;99.90;;;;;;4995840;28;20042;-83
2022/08/25 02:36:23;;;;;;;0.95;0.70;;;18.90;99.90;;;;;;4995323;28;20039;-93
2022/08/25 02:38:50;;;;;;;1.00;0.52;;;18.90;99.90;;;;;;4979235;28;20042;-93
2022/08/25 02:41:20;;;;;;;0.57;0.45;;;19.00;99.90;;;;;;5011113;28;20099;-83
2022/08/25 02:43:48;;;;;;;0.35;0.28;;;18.90;99.90;;;;;;5011570;28;20081;-93
2022/08/25 02:46:18;;;;;;;0.77;0.55;;;18.90;99.90;;;;;;4995630;28;20042;-93
2022/08/25 02:48:46;;;;;;;0.60;0.43;;;18.90;99.90;;;;;;5010687;28;20040;-93
2022/08/25 02:51:14;;;;;;;0.88;0.55;;;18.90;99.90;;;;;;5016900;28;20054;-93
2022/08/25 02:53:44;;;;;;;0.70;0.40;;;18.80;99.90;;;;;;5010684;28;20487;-83
2022/08/25 02:56:14;;;;;;;0.73;0.52;;;18.80;99.90;;;;;;5030870;28;20034;-83
2022/08/25 02:58:41;;;;;;;0.60;0.40;;;18.80;99.90;;;;;;5029964;28;20513;-93
2022/08/25 03:01:10;;;;;;;0.38;0.30;;;18.80;99.90;;;;;;5014507;28;20392;-93
2022/08/25 03:03:39;;;;;;;0.50;0.50;;;18.80;99.90;;;;;;5030293;28;20077;-91
2022/08/25 03:06:10;;;;;;;0.47;0.47;;;18.70;99.90;;;;;;5030380;28;20042;-83
2022/08/25 03:08:37;;;;;;;0.30;0.30;;;18.70;99.90;;;;;;5030244;28;20037;-82
2022/08/25 03:11:05;;;;;;;0.40;0.40;;;18.70;99.90;;;;;;5013887;28;20459;-82
2022/08/25 03:13:31;;;;;;;0.90;0.60;;;18.70;99.90;;;;;;4998427;28;20034;-93
2022/08/25 03:15:59;;;;;;;0.32;0.30;;;18.70;99.90;;;;;;5029971;28;20091;-93
2022/08/25 03:18:26;;;;;;;0.93;0.60;;;18.60;99.90;;;;;;5030245;28;20550;-92
2022/08/25 03:20:53;;;;;;;0.50;0.45;;;18.60;99.90;;;;;;5026728;28;20052;-83
2022/08/25 03:23:19;;;;;;;0.98;0.60;;;18.60;99.90;;;;;;4994571;28;20121;-83
2022/08/25 03:28:32;;;;;;;0.63;0.43;;;18.50;99.90;;;;;;5007693;28;20041;-93
2022/08/25 03:30:59;;;;;;;0.73;0.45;;;18.60;99.90;;;;;;5013702;28;20148;-83
2022/08/25 03:33:27;;;;;;;0.77;0.60;;;18.50;99.90;;;;;;5030649;28;20446;-83
2022/08/25 03:35:54;;;;;;;0.60;0.47;;;18.40;99.90;;;;;;5029523;28;20466;-83
2022/08/25 03:38:24;;;;;;;0.90;0.50;;;18.40;99.90;;;;;;5011335;28;20038;-83
2022/08/25 03:40:51;;;;;;;0.70;0.43;;;18.40;99.90;;;;;;5010322;28;20042;-83
2022/08/25 03:43:18;;;;;;;0.63;0.50;;;18.30;99.90;;;;;;5011008;28;20046;-93
2022/08/25 03:45:47;;;;;;;0.50;0.40;;;18.40;99.90;;;;;;5010653;28;20045;-85
2022/08/25 03:48:14;;;;;;;0.32;0.32;;;18.40;99.90;;;;;;5009925;28;20470;-82
2022/08/25 03:50:49;;;;;;;0.30;0.30;;;18.30;99.90;;;;;;4994391;28;20042;-93
2022/08/25 03:53:16;;;;;;;0.77;0.50;;;18.30;99.90;;;;;;4994438;28;20092;-83
2022/08/25 03:55:43;;;;;;;0.57;0.40;;;18.30;99.90;;;;;;4997124;28;20046;-92
2022/08/25 03:58:11;;;;;;;0.52;0.40;;;18.30;99.90;;;;;;4998688;28;20030;-85
2022/08/25 04:00:38;;;;;;;0.95;0.52;;;18.30;99.90;;;;;;5023244;28;20050;-92
2022/08/25 04:03:05;;;;;;;1.17;0.63;;;18.30;99.90;;;;;;4997781;28;20038;-82
2022/08/25 04:05:31;;;;;;;1.42;0.73;;;18.30;99.90;;;;;;4981695;28;20034;-92
2022/08/25 04:08:00;;;;;;;0.90;0.60;;;18.30;99.90;;;;;;4998069;28;20053;-93
2022/08/25 04:10:27;;;;;;;0.68;0.50;;;18.30;99.90;;;;;;4998383;28;20038;-82
2022/08/25 04:12:54;;;;;;;0.88;0.52;;;18.30;99.90;;;;;;4981782;28;20034;-83
2022/08/25 04:15:24;;;;;;;0.85;0.60;;;18.20;99.90;;;;;;4982046;28;20381;-83
2022/08/25 04:17:50;;;;;;;0.40;0.30;;;18.20;99.90;;;;;;4997264;28;20077;-92
2022/08/25 04:20:17;;;;;;;0.65;0.50;;;18.20;99.90;;;;;;4983542;28;20077;-83
2022/08/25 04:22:44;;;;;;;0.60;0.50;;;18.20;99.90;;;;;;5001195;28;20049;-83
2022/08/25 04:25:11;;;;;;;1.00;0.60;;;18.20;99.90;;;;;;5032344;28;20046;-83
2022/08/25 04:27:39;;;;;;;0.82;0.47;;;18.20;99.90;;;;;;5016866;28;20499;-83
2022/08/25 04:30:06;;;;;;;1.05;0.50;;;18.20;99.90;;;;;;5049438;28;20042;-93
2022/08/25 04:32:35;;;;;;;0.50;0.35;;;18.20;99.90;;;;;;5033031;28;20038;-83
2022/08/25 04:35:04;;;;;;;0.77;0.50;;;18.20;99.90;;;;;;5017043;28;20846;-93
2022/08/25 04:37:31;;;;;;;0.82;0.60;;;18.10;99.90;;;;;;5016937;28;20156;-82
2022/08/25 04:39:58;;;;;;;0.50;0.40;;;18.10;99.90;;;;;;5016708;28;20558;-82
2022/08/25 04:42:25;;;;;;;1.02;0.60;;;18.10;99.90;;;;;;5000942;28;20046;-83
2022/08/25 04:44:53;;;;;;;0.43;0.40;;;18.10;99.90;;;;;;5000253;28;20042;-88
2022/08/25 04:47:20;;;;;;;0.82;0.60;;;18.10;99.90;;;;;;5017074;28;20052;-83
2022/08/25 04:49:46;;;;;;;1.63;0.70;;;18.10;99.90;;;;;;4990981;28;20042;-82
2022/08/25 04:52:13;;;;;;;0.65;0.50;;;18.10;99.90;;;;;;4996958;28;20053;-82
2022/08/25 04:54:40;;;;;;;1.27;0.80;;;18.10;99.90;;;;;;4996939;28;20069;-82
2022/08/25 04:57:07;;;;;;;0.50;0.50;;;18.10;99.90;;;;;;4981492;28;20148;-93
2022/08/25 04:59:34;;;;;;;0.70;0.40;;;18.20;99.90;;;;;;5017864;28;20061;-84
2022/08/25 05:02:01;;;;;;;0.63;0.43;;;18.20;99.90;;;;;;5000094;28;20422;-93
2022/08/25 05:04:29;;;;;;;1.20;0.73;;;18.20;99.90;;;;;;5001100;28;20135;-83
2022/08/25 05:06:56;;;;;;;0.40;0.38;;;18.20;99.90;;;;;;5011952;28;20495;-94
2022/08/25 05:09:23;;;;;;;0.65;0.50;;;18.20;99.90;;;;;;4996735;28;20108;-83
2022/08/25 05:11:50;;;;;;;0.63;0.40;;;18.20;99.90;;;;;;4996583;28;20488;-94
2022/08/25 05:14:20;;;;;;;0.25;0.25;;;18.20;99.90;;;;;;4983911;28;20045;-93
2022/08/25 05:16:47;;;;;;;1.10;0.57;;;18.20;99.90;;;;;;5000203;28;20061;-95
2022/08/25 05:19:14;;;;;;;0.40;0.35;;;18.20;99.90;;;;;;4999666;28;20384;-94
2022/08/25 05:21:41;;;;;;;1.20;0.75;;;18.20;99.90;;;;;;5032161;28;20048;-83
2022/08/25 05:24:08;;;;;;;1.00;0.50;;;18.30;99.90;;;;;;4983694;28;20046;-83
2022/08/25 05:26:36;;;;;;;0.88;0.60;;;18.30;99.90;;;;;;5032005;28;20049;-91
2022/08/25 05:29:05;;;;;;;1.80;0.73;;;18.30;99.90;;;;;;4983553;28;20049;-93
2022/08/25 05:31:32;;;;;;;1.00;0.60;;;18.40;99.90;;;;;;5015587;28;20128;-93
2022/08/25 05:33:59;;;;;;;1.70;0.80;;;18.40;99.90;;;;;;5015399;28;20077;-83
2022/08/25 05:36:27;;;;;;;1.15;0.80;;;18.50;99.90;;;;;;4981377;28;20034;-92
2022/08/25 05:38:54;;;;;;;0.80;0.57;;;18.50;99.90;;;;;;5016034;28;20124;-93
2022/08/25 05:41:27;;;;;;;1.02;0.60;;;18.50;99.90;;;;;;5031034;28;20121;-83
2022/08/25 05:43:54;;;;;;;0.60;0.45;;;18.50;99.90;;;;;;5015159;28;20470;-83
2022/08/25 05:46:21;;;;;;;0.52;0.52;;;18.60;99.90;;;;;;5015328;28;20491;-92
2022/08/25 05:48:48;;;;;;;0.75;0.55;;;18.60;99.90;;;;;;4999506;28;20042;-92
2022/08/25 05:51:16;;;;;;;0.90;0.57;;;18.70;99.90;;;;;;5031328;28;20049;-93
2022/08/25 05:53:46;;;;;;;0.77;0.60;;;18.70;99.90;;;;;;5031367;28;20380;-92
2022/08/25 05:56:13;;;;;;;1.17;0.77;;;18.80;99.90;;;;;;5014665;28;20072;-92
2022/08/25 05:58:41;;;;;;;0.63;0.57;;;18.80;99.90;;;;;;5015492;28;20045;-83
2022/08/25 06:03:54;;;;;;;0.93;0.57;;;18.60;99.90;;;;;;5030335;28;20411;-83
2022/08/25 06:06:23;;;;;;;1.35;0.90;;;19.00;99.90;;;;;;4998621;28;20078;-92
2022/08/25 06:08:50;;;;;;;1.13;0.80;;;19.00;99.90;;;;;;5027567;28;20043;-92
2022/08/25 06:11:18;;;;;;;0.82;0.68;;;19.00;99.90;;;;;;4995496;28;20133;-83
2022/08/25 06:13:45;;;;;;;0.90;0.68;;;19.20;99.90;;;;;;4995241;28;20050;-82
2022/08/25 06:16:11;;;;;;;0.50;0.50;;;19.20;99.90;;;;;;5006145;28;20038;-83
2022/08/25 06:18:38;;;;;;;1.00;0.70;;;19.20;99.90;;;;;;5028418;28;20038;-83
2022/08/25 06:21:13;;;;;;;0.75;0.52;;;19.30;99.90;;;;;;5030807;28;20045;-83
2022/08/25 06:23:39;;;;;;;1.23;0.70;;;19.30;99.90;;;;;;5046703;28;20049;-83
2022/08/25 06:26:09;;;;;;;0.77;0.57;;;19.40;99.90;;;;;;5014506;28;20046;-94
2022/08/25 06:28:36;;;;;;;1.05;0.50;;;19.40;99.90;;;;;;5030871;28;20406;-83
2022/08/25 06:31:03;;;;;;;1.02;0.60;;;19.50;99.90;;;;;;5014555;28;20034;-96
2022/08/25 06:33:30;;;;;;;1.20;0.73;;;19.60;99.90;;;;;;5027069;28;20116;-93
2022/08/25 06:35:58;;;;;;;0.90;0.63;;;19.60;99.90;;;;;;5022828;28;20530;-83
2022/08/25 06:38:25;;;;;;;0.82;0.52;;;19.70;99.90;;;;;;5030863;28;20033;-83
2022/08/25 06:40:52;;;;;;;0.93;0.60;;;19.80;99.90;;;;;;5014247;28;20219;-82
2022/08/25 06:43:20;;;;;;;1.63;1.00;;;19.80;99.90;;;;;;5029998;28;20049;-94
2022/08/25 06:45:47;;;;;;;1.05;0.80;;;19.80;99.90;;;;;;5023953;28;20478;-83
2022/08/25 06:48:14;;;;;;;1.08;0.77;;;19.90;99.90;;;;;;5028839;28;20132;-93
2022/08/25 06:50:42;;;;;;;0.95;0.70;;;19.90;99.90;;;;;;5011551;28;20043;-83
2022/08/25 06:53:08;;;;;;;0.68;0.60;;;20.00;99.90;;;;;;5028028;28;20128;-83
2022/08/25 06:55:35;;;;;;;0.65;0.52;;;20.10;99.90;;;;;;4997945;28;20124;-82
2022/08/25 06:58:03;;;;;;;1.55;0.90;;;20.20;99.90;;;;;;5030500;28;20042;-93
2022/08/25 07:00:30;;;;;;;0.98;0.63;;;20.30;99.90;;;;;;5013031;28;20058;-82
2022/08/25 07:02:59;;;;;;;1.17;0.75;;;20.40;99.90;;;;;;5026627;28;20482;-83
2022/08/25 07:05:28;;;;;;;0.80;0.63;;;20.50;99.90;;;;;;5035334;28;20049;-92
2022/08/25 07:07:55;;;;;;;1.15;0.80;;;20.50;99.90;;;;;;5030332;28;20091;-80
2022/08/25 07:10:22;;;;;;;0.70;0.50;;;20.70;99.90;;;;;;5045858;28;20070;-80
2022/08/25 07:12:50;;;;;;;1.40;0.63;;;20.80;99.90;;;;;;4996717;28;20080;-83
2022/08/25 07:15:17;;;;;;;1.27;0.73;;;20.90;99.90;;;;;;5029430;28;20041;-82
2022/08/25 07:17:44;;;;;;;1.60;0.90;;;21.10;99.90;;;;;;5004896;28;20044;-81
2022/08/25 07:20:13;;;;;;;1.13;0.82;;;21.30;99.90;;;;;;5046591;28;20064;-82
2022/08/25 07:22:40;;;;;;;1.30;0.70;;;21.40;99.90;;;;;;5029804;28;20084;-86
2022/08/25 07:25:09;;;;;;;0.98;0.60;;;21.50;99.90;;;;;;4997489;28;20052;-81
2022/08/25 07:27:37;;;;;;;1.00;0.60;;;21.50;99.90;;;;;;5013562;28;20037;-85
2022/08/25 07:30:06;;;;;;;0.80;0.60;;;21.70;99.90;;;;;;5013701;28;20042;-90
2022/08/25 07:32:33;;;;;;;1.02;0.63;;;21.80;99.90;;;;;;5028961;28;20050;-82
2022/08/25 07:35:15;;;;;;;0.93;0.63;;;21.90;99.90;;;;;;4994234;28;20039;-82
2022/08/25 07:37:50;;;;;;;1.55;0.68;;;22.00;99.90;;;;;;5026727;28;20038;-89
2022/08/25 07:40:23;;;;;;;1.42;0.80;;;22.10;99.90;;;;;;5040535;28;20061;-82
2022/08/25 07:42:52;;;;;;;1.02;0.52;;;22.30;99.90;;;;;;5023397;28;20088;-82
2022/08/25 07:45:20;;;;;;;0.73;0.55;;;22.40;99.90;;;;;;5042087;28;20038;-82
2022/08/25 07:47:48;;;;;;;0.75;0.52;;;22.50;99.90;;;;;;5025724;28;20046;-88
2022/08/25 07:50:14;;;;;;;1.55;0.80;;;22.70;99.90;;;;;;5039732;28;20414;-85
2022/08/25 07:52:41;;;;;;;0.98;0.60;;;22.80;99.90;;;;;;5025916;28;20038;-90
2022/08/25 07:55:08;;;;;;;1.15;0.77;;;22.90;99.90;;;;;;5029666;28;20052;-90
2022/08/25 07:57:37;;;;;;;1.17;0.70;;;23.10;99.90;;;;;;5013640;28;20038;-82
2022/08/25 08:00:05;;;;;;;0.82;0.60;;;23.20;99.90;;;;;;5012567;28;20061;-82
2022/08/25 08:02:32;;;;;;;1.27;0.75;;;23.30;99.90;;;;;;5010858;28;20046;-82
2022/08/25 08:04:59;;;;;;;1.27;0.73;;;23.40;99.90;;;;;;4996340;28;20044;-92
2022/08/25 08:07:26;;;;;;;1.02;0.80;;;23.50;99.90;;;;;;5012609;28;20041;-82
2022/08/25 08:09:53;;;;;;;1.20;0.60;;;23.60;99.90;;;;;;5012452;28;20137;-82
2022/08/25 08:12:20;;;;;;;0.98;0.60;;;23.70;99.90;;;;;;4994341;28;20109;-89
2022/08/25 08:14:47;;;;;;;0.52;0.50;;;23.80;99.90;;;;;;5010326;28;20038;-91
2022/08/25 08:17:14;;;;;;;1.00;0.70;;;23.90;99.90;;;;;;4997099;28;20116;-82
2022/08/25 08:19:40;;;;;;;0.75;0.57;;;24.00;99.90;;;;;;5010793;28;20129;-92
2022/08/25 08:22:10;;;;;;;1.50;0.80;;;24.20;99.90;;;;;;5013109;28;20045;-83
2022/08/25 08:24:39;;;;;;;1.50;0.68;;;24.20;99.90;;;;;;5004312;28;20108;-91
2022/08/25 08:27:07;;;;;;;1.38;0.60;;;24.40;99.90;;;;;;5029317;28;20046;-82
2022/08/25 08:29:34;;;;;;;1.38;0.60;;;24.40;99.90;;;;;;5011276;28;20050;-82
2022/08/25 08:32:03;;;;;;;0.52;0.47;;;24.50;99.90;;;;;;5011200;28;20038;-91
2022/08/25 08:34:31;;;;;;;1.30;0.75;;;24.60;99.90;;;;;;5028180;28;20055;-91
2022/08/25 08:36:58;;;;;;;1.65;0.98;;;24.80;99.90;;;;;;5027296;28;20506;-91
2022/08/25 08:39:26;;;;;;;0.57;0.57;;;24.90;99.90;;;;;;5026147;28;20038;-82
2022/08/25 08:42:18;;;;;;;0.95;0.65;;;25.00;99.90;;;;;;5024695;28;20046;-90
2022/08/25 08:44:44;;;;;;;0.98;0.60;;;25.20;99.90;;;;;;5048433;28;20584;-90
2022/08/25 08:47:33;;;;;;;1.38;0.85;;;25.30;99.90;;;;;;5033010;28;20157;-94
2022/08/25 08:50:47;;;;;;;1.13;0.65;;;25.40;99.90;;;;;;5021533;28;20048;-83
2022/08/25 08:53:23;;;;;;;1.63;0.88;;;25.60;99.90;;;;;;4957259;29;20146;-82
2022/08/25 08:55:57;;;;;;;1.45;0.80;;;25.70;99.90;;;;;;5027019;28;20050;-92
2022/08/25 08:59:13;;;;;;;1.75;1.00;;;25.80;99.90;;;;;;5031468;28;20084;-84
2022/08/25 09:01:58;;;;;;;0.88;0.65;;;25.90;99.90;;;;;;5009928;28;20068;-83
2022/08/25 09:04:47;;;;;;;1.08;0.80;;;26.00;99.90;;;;;;5047927;28;20038;-82
2022/08/25 09:07:20;;;;;;;1.42;0.68;;;26.10;99.90;;;;;;5032067;28;20042;-90
2022/08/25 09:09:47;;;;;;;0.95;0.63;;;26.20;99.90;;;;;;5022049;28;20127;-81
2022/08/25 09:12:20;;;;;;;1.25;0.80;;;26.30;99.90;;;;;;5030274;28;20039;-90
2022/08/25 09:15:13;;;;;;;0.98;0.65;;;26.40;99.90;;;;;;5025032;28;20037;-91
2022/08/25 09:18:06;;;;;;;1.00;0.63;;;26.50;99.90;;;;;;5031095;28;20034;-82
2022/08/25 09:20:58;;;;;;;0.88;0.60;;;26.60;99.90;;;;;;5047253;28;20057;-82
2022/08/25 09:23:45;;;;;;;0.90;0.60;;;26.70;99.90;;;;;;5031469;28;20100;-89
2022/08/25 09:26:41;;;;;;;0.88;0.60;;;26.80;99.90;;;;;;5032022;28;20041;-81
2022/08/25 09:29:12;;;;;;;0.90;0.60;;;26.90;99.90;;;;;;5028004;28;20096;-82
2022/08/25 09:31:41;;;;;;;0.73;0.52;;;27.00;99.90;;;;;;5027826;28;20046;-90
2022/08/25 09:34:32;;;;;;;1.33;0.70;;;27.10;99.90;;;;;;5030662;28;20046;-83
2022/08/25 09:36:59;;;;;;;1.13;0.73;;;27.20;99.90;;;;;;5031205;28;20052;-83
2022/08/25 09:39:26;;;;;;;1.10;0.77;;;27.30;99.90;;;;;;5027077;28;20038;-84
2022/08/25 09:41:56;;;;;;;1.17;0.70;;;27.30;99.90;;;;;;5026441;28;20061;-83
2022/08/25 09:44:40;;;;;;;1.55;0.85;;;27.40;99.90;;;;;;5011660;28;20042;-83
2022/08/25 09:47:17;;;;;;;0.95;0.60;;;27.50;99.90;;;;;;5016356;28;20050;-83
2022/08/25 09:49:47;;;;;;;0.60;0.60;;;27.70;99.90;;;;;;5029738;28;20128;-90
2022/08/25 09:52:21;;;;;;;1.42;0.90;;;27.70;99.90;;;;;;5030402;28;20046;-89
2022/08/25 09:54:49;;;;;;;1.08;0.90;;;27.90;99.90;;;;;;5028483;28;20080;-91
2022/08/25 09:57:30;;;;;;;1.08;0.65;;;28.00;99.90;;;;;;5030765;28;20129;-83
2022/08/25 10:00:08;;;;;;;0.90;0.70;;;28.10;99.90;;;;;;5030406;28;20052;-90
2022/08/25 10:02:34;;;;;;;0.50;0.50;;;28.20;99.90;;;;;;5013778;28;20077;-83
2022/08/25 10:05:18;;;;;;;0.85;0.57;;;28.30;99.90;;;;;;5012475;28;20077;-89
2022/08/25 10:07:53;;;;;;;0.98;0.63;;;28.30;99.90;;;;;;5028475;28;20099;-86
2022/08/25 10:10:36;;;;;;;0.77;0.70;;;28.40;99.90;;;;;;5011437;28;20045;-90
2022/08/25 10:13:17;;;;;;;0.50;0.50;;;28.50;99.90;;;;;;5001393;28;20038;-88
2022/08/25 10:15:44;;;;;;;1.05;0.60;;;28.50;99.90;;;;;;5022653;28;20053;-89
2022/08/25 10:18:28;;;;;;;1.10;0.50;;;28.60;99.90;;;;;;4997487;28;20044;-85
2022/08/25 10:21:02;;;;;;;1.10;0.70;;;28.70;99.90;;;;;;5011035;28;20046;-91
2022/08/25 10:23:31;;;;;;;0.60;0.60;;;28.80;99.80;;;;;;5011857;28;20495;-83
2022/08/25 10:26:02;;;;;;;0.75;0.60;;;28.80;99.90;;;;;;4997728;28;20042;-83
2022/08/25 10:28:59;;;;;;;1.58;0.60;;;28.80;99.90;;;;;;5014291;28;20117;-84
2022/08/25 10:31:40;;;;;;;0.75;0.50;;;28.90;99.20;;;;;;5014099;28;20077;-83
2022/08/25 10:34:25;;;;;;;1.55;0.82;;;29.00;99.80;;;;;;5026315;28;20134;-83
2022/08/25 10:36:58;;;;;;;;;;;29.00;99.90;;;;;;5010539;28;20073;-83
2022/08/25 10:39:39;;;;;;;1.05;0.70;;;29.10;99.90;;;;;;5013091;28;20301;-84
2022/08/25 10:42:32;;;;;;;1.13;0.68;;;29.20;99.10;;;;;;5011662;28;20045;-89
2022/08/25 10:48:36;;;;;;;0.95;0.60;;;29.30;98.60;;;;;;5026475;28;20045;-90
2022/08/25 10:51:27;;;;;;;0.63;0.60;;;29.40;98.40;;;;;;5012546;28;20503;-90
2022/08/25 10:54:29;;;;;;;1.20;0.80;;;29.40;99.20;;;;;;5027061;28;20487;-83
2022/08/25 10:57:13;;;;;;;1.00;0.70;;;29.50;97.40;;;;;;5013460;28;20057;-87
2022/08/25 11:00:02;;;;;;;0.55;0.50;;;29.50;98.50;;;;;;5014007;28;20041;-83
2022/08/25 11:02:47;;;;;;;0.82;0.60;;;29.60;98.70;;;;;;5014326;28;20058;-89
2022/08/25 11:05:23;;;;;;;0.80;0.60;;;29.60;98.00;;;;;;4995198;28;20034;-83
2022/08/25 11:07:57;;;;;;;0.70;0.50;;;29.60;99.10;;;;;;5000677;28;20057;-84
2022/08/25 11:10:41;;;;;;;0.57;0.40;;;29.60;98.10;;;;;;4998546;28;20469;-82
2022/08/25 11:13:41;;;;;;;0.40;0.35;;;29.70;96.80;;;;;;5011728;28;20290;-82
2022/08/25 11:16:13;;;;;;;0.38;0.38;;;29.70;96.60;;;;;;5007412;28;20055;-81
2022/08/25 11:18:50;;;;;;;0.47;0.47;;;29.70;95.60;;;;;;5012691;28;20034;-82
2022/08/25 11:21:34;;;;;;;0.82;0.55;;;29.80;95.60;;;;;;5017748;28;20096;-82
2022/08/25 11:24:16;;;;;;;0.77;0.50;;;29.90;96.70;;;;;;5006146;28;20081;-81
2022/08/25 11:26:54;;;;;;;0.82;0.50;;;30.00;96.50;;;;;;5009591;28;20049;-82
2022/08/25 11:29:25;;;;;;;0.50;0.47;;;30.00;97.50;;;;;;5012365;28;20043;-89
2022/08/25 11:31:53;;;;;;;0.45;0.40;;;30.00;95.30;;;;;;5018329;28;20683;-89
2022/08/25 11:34:21;;;;;;;0.30;0.30;;;30.00;94.80;;;;;;4978647;28;20464;-89
2022/08/25 11:37:06;;;;;;;0.70;0.57;;;30.00;95.30;;;;;;5009753;28;20038;-82
2022/08/25 11:39:36;;;;;;;0.52;0.47;;;30.00;94.40;;;;;;5016548;28;20055;-90
2022/08/25 11:42:23;;;;;;;0.43;0.40;;;30.00;94.20;;;;;;5025563;28;20054;-83
2022/08/25 11:44:50;;;;;;;0.82;0.50;;;30.00;93.10;;;;;;5022859;28;20045;-88
2022/08/25 11:47:28;;;;;;;1.02;0.55;;;30.00;94.10;;;;;;5012927;28;20401;-89
2022/08/25 11:50:23;;;;;;;0.50;0.50;;;30.00;94.40;;;;;;5010802;28;20046;-82
2022/08/25 11:52:56;;;;;;;0.40;0.40;;;30.10;95.00;;;;;;5002772;28;20050;-81
2022/08/25 11:56:01;;;;;;;0.40;0.40;;;30.10;94.40;;;;;;5017295;28;20200;-86
2022/08/25 11:58:40;;;;;;;0.50;0.50;;;30.00;92.60;;;;;;4970244;28;20058;-87
2022/08/25 12:01:34;;;;;;;0.70;0.50;;;30.00;93.80;;;;;;5021466;28;20046;-89
2022/08/25 12:04:40;;;;;;;0.73;0.45;;;30.20;94.50;;;;;;5015048;28;20462;-82
2022/08/25 12:07:12;;;;;;;0.47;0.47;;;30.20;92.00;;;;;;5029814;28;20048;-89
2022/08/25 12:09:52;;;;;;;0.45;0.40;;;30.20;93.70;;;;;;5029528;28;20038;-82
2022/08/25 12:12:31;;;;;;;0.40;0.40;;;30.30;94.10;;;;;;5045592;28;20038;-90
2022/08/25 12:15:20;;;;;;;0.45;0.45;;;30.40;94.00;;;;;;5030388;28;20041;-88
2022/08/25 12:18:22;;;;;;;0.50;0.50;;;30.40;92.50;;;;;;5019167;28;20921;-83
2022/08/25 12:20:55;;;;;;;1.25;0.60;;;30.40;92.90;;;;;;5015561;28;20110;-87
2022/08/25 12:23:28;;;;;;;0.40;0.40;;;30.50;93.10;;;;;;5034740;28;20034;-88
2022/08/25 12:26:00;;;;;;;0.67;0.50;;;30.40;91.50;;;;;;5020413;28;20135;-87
2022/08/25 12:28:33;;;;;;;0.75;0.60;;;30.40;91.80;;;;;;5026878;28;20069;-91
2022/08/25 12:31:36;;;;;;;0.52;0.50;;;30.40;93.40;;;;;;5032805;28;20052;-82
2022/08/25 12:34:28;;;;;;;0.77;0.40;;;30.40;93.10;;;;;;4979984;28;20120;-83
2022/08/25 12:37:12;;;;;;;0.40;0.40;;;30.50;93.10;;;;;;5031686;28;20633;-82
2022/08/25 12:40:02;;;;;;;0.98;0.60;;;30.50;91.90;;;;;;5048453;28;20045;-84
2022/08/25 12:42:34;;;;;;;0.52;0.52;;;30.50;92.20;;;;;;5028778;28;20042;-88
2022/08/25 12:45:19;;;;;;;1.50;0.55;;;30.50;92.90;;;;;;5040951;28;20065;-86
2022/08/25 12:47:48;;;;;;;0.85;0.60;;;30.60;92.10;;;;;;5031708;28;20038;-88
2022/08/25 12:50:35;;;;;;;0.52;0.40;;;30.50;92.60;;;;;;5048603;28;20049;-89
2022/08/25 12:53:29;;;;;;;0.73;0.40;;;30.50;91.30;;;;;;5028120;28;20042;-82
2022/08/25 12:56:04;;;;;;;0.50;0.50;;;30.50;91.40;;;;;;5038483;28;20045;-88
2022/08/25 12:58:49;;;;;;;0.70;0.60;;;30.50;92.30;;;;;;5030659;28;20406;-82
2022/08/25 13:01:45;;;;;;;0.83;0.63;;;30.50;92.40;;;;;;5023349;28;20156;-83
2022/08/25 13:04:40;;;;;;;1.35;0.75;;;30.50;91.70;;;;;;5019432;28;20050;-86
2022/08/25 13:07:53;;;;;;;0.73;0.47;;;30.50;91.90;;;;;;5031884;28;20509;-86
2022/08/25 13:10:48;;;;;;;1.10;0.65;;;30.50;91.80;;;;;;5004345;28;20050;-86
2022/08/25 13:13:33;;;;;;;;;;;30.50;91.30;;;;;;5036631;28;20042;-86
2022/08/25 13:16:07;;;;;;;0.85;0.68;;;30.40;91.30;;;;;;5028129;28;19917;-87
2022/08/25 13:18:36;;;;;;;0.60;0.50;;;30.40;90.90;;;;;;5018242;28;20038;-82
2022/08/25 13:21:19;;;;;;;0.80;0.52;;;30.30;91.40;;;;;;5021845;28;20041;-88
2022/08/25 13:23:49;;;;;;;0.68;0.55;;;30.40;91.30;;;;;;5027415;28;20042;-83
2022/08/25 13:26:29;;;;;;;1.00;0.70;;;30.40;91.90;;;;;;5027950;28;20042;-89